TimeCDT,TemperatureF,Dew PointF,Humidity,Sea Level PressureIn,VisibilityMPH,Wind Direction,Wind SpeedMPH,Gust SpeedMPH,PrecipitationIn,Events,Conditions,WindDirDegrees,DateUTC
12:56 AM,43.9,30.0,58,30.16,10.0,West,5.8,-,N/A,,Clear,270,2013-05-13 05:56:00
1:56 AM,43.9,30.0,58,30.16,10.0,West,6.9,-,N/A,,Clear,270,2013-05-13 06:56:00
2:56 AM,43.0,30.0,60,30.16,10.0,West,6.9,-,N/A,,Clear,280,2013-05-13 07:56:00
3:56 AM,41.0,31.1,68,30.16,10.0,West,5.8,-,N/A,,Clear,270,2013-05-13 08:56:00
4:56 AM,41.0,32.0,70,30.16,10.0,West,3.5,-,N/A,,Clear,280,2013-05-13 09:56:00
5:56 AM,38.8,32.0,76,30.17,10.0,WSW,3.5,-,N/A,,Clear,250,2013-05-13 10:56:00
6:56 AM,41.0,34.9,79,30.20,10.0,WSW,4.6,-,N/A,,Clear,240,2013-05-13 11:56:00
7:56 AM,50.0,32.9,52,30.21,10.0,WNW,4.6,-,N/A,,Clear,290,2013-05-13 12:56:00
8:56 AM,54.0,28.0,37,30.22,10.0,WNW,4.6,-,N/A,,Clear,290,2013-05-13 13:56:00
9:56 AM,56.8,30.0,36,30.22,10.0,Variable,4.6,-,N/A,,Clear,0,2013-05-13 14:56:00
10:56 AM,57.9,28.0,32,30.22,10.0,WSW,5.8,-,N/A,,Clear,240,2013-05-13 15:56:00
11:56 AM,61.0,28.0,29,30.21,10.0,West,4.6,-,N/A,,Clear,270,2013-05-13 16:56:00
12:56 PM,63.0,27.1,26,30.18,10.0,West,12.7,17.3,N/A,,Clear,280,2013-05-13 17:56:00
1:56 PM,64.9,26.1,23,30.17,10.0,Variable,4.6,-,N/A,,Clear,0,2013-05-13 18:56:00
3:56 PM,68.0,28.0,22,30.12,10.0,WNW,9.2,17.3,N/A,,Clear,290,2013-05-13 20:56:00
4:56 PM,66.9,32.0,27,30.10,10.0,SW,12.7,-,N/A,,Clear,230,2013-05-13 21:56:00
5:56 PM,66.9,32.0,27,30.09,10.0,West,11.5,-,N/A,,Clear,260,2013-05-13 22:56:00
6:56 PM,65.8,32.9,29,30.08,10.0,WSW,9.2,-,N/A,,Mostly Cloudy,240,2013-05-13 23:56:00
7:56 PM,61.9,36.9,39,30.08,10.0,SSW,8.1,-,N/A,,Clear,200,2013-05-14 00:56:00
8:56 PM,59.9,39.9,48,30.06,10.0,SSW,9.2,-,0.00,,Partly Cloudy,200,2013-05-14 01:56:00
9:56 PM,57.9,41.0,53,30.06,10.0,South,9.2,-,N/A,,Mostly Cloudy,190,2013-05-14 02:56:00
10:56 PM,56.8,41.9,57,30.07,10.0,South,8.1,-,N/A,,Partly Cloudy,190,2013-05-14 03:56:00
11:56 PM,55.9,41.9,59,30.05,10.0,South,10.4,-,N/A,,Clear,180,2013-05-14 04:56:00